createdAt,value
2018-06-12T00:02:01.115Z,18.75
2018-06-12T00:04:33.102Z,17.50
2018-06-12T00:07:07.059Z,18.00
2018-06-12T00:09:39.114Z,22.00
2018-06-12T00:12:10.190Z,19.75
2018-06-12T00:14:41.223Z,21.50
2018-06-12T00:17:12.436Z,20.00
2018-06-12T00:19:42.916Z,17.75
2018-06-12T00:22:14.038Z,16.75
2018-06-12T00:24:47.921Z,19.75
2018-06-12T00:27:23.445Z,20.00
2018-06-12T00:29:54.140Z,19.25
2018-06-12T00:32:25.554Z,20.00
2018-06-12T00:34:55.865Z,21.00
2018-06-12T00:37:28.090Z,21.00
2018-06-12T00:39:59.332Z,20.75
2018-06-12T00:42:29.656Z,20.50
2018-06-12T00:45:00.583Z,22.00
2018-06-12T00:47:52.024Z,20.50
2018-06-12T00:50:24.306Z,23.25
2018-06-12T00:52:57.246Z,20.75
2018-06-12T00:55:27.676Z,22.50
2018-06-12T00:57:59.976Z,22.25
2018-06-12T01:00:30.325Z,22.75
2018-06-12T01:03:01.296Z,21.50
2018-06-12T01:05:31.845Z,20.50
2018-06-12T01:08:02.309Z,20.00
2018-06-12T01:10:32.625Z,23.75
2018-06-12T01:13:03.253Z,20.00
2018-06-12T01:15:38.236Z,21.00
2018-06-12T01:18:09.052Z,21.25
2018-06-12T01:20:40.404Z,24.25
2018-06-12T01:23:10.897Z,22.00
2018-06-12T01:25:41.432Z,22.50
2018-06-12T01:28:16.060Z,22.75
2018-06-12T01:30:47.500Z,24.75
2018-06-12T01:33:18.219Z,25.25
2018-06-12T01:36:00.529Z,21.50
2018-06-12T01:38:31.145Z,22.25
2018-06-12T01:41:01.733Z,25.25
2018-06-12T01:43:32.103Z,22.50
2018-06-12T01:46:02.338Z,27.50
2018-06-12T01:48:32.952Z,24.50
2018-06-12T01:51:04.485Z,27.25
2018-06-12T01:54:06.423Z,24.00
2018-06-12T01:56:37.988Z,27.00
2018-06-12T01:59:09.378Z,25.00
2018-06-12T02:01:40.047Z,25.00
2018-06-12T02:04:10.673Z,23.25
2018-06-12T02:06:42.624Z,24.00
2018-06-12T02:09:15.062Z,28.25
2018-06-12T02:11:45.759Z,23.50
2018-06-12T02:14:20.981Z,23.25
2018-06-12T02:16:53.511Z,27.25
2018-06-12T02:19:24.065Z,24.50
2018-06-12T02:21:55.153Z,26.00
2018-06-12T02:24:25.732Z,26.75
2018-06-12T02:26:56.163Z,28.75
2018-06-12T02:29:26.562Z,27.75
2018-06-12T02:31:57.773Z,24.50
2018-06-12T02:34:29.274Z,27.00
2018-06-12T02:36:59.606Z,27.50
2018-06-12T02:39:29.855Z,27.00
2018-06-12T02:42:01.175Z,32.00
2018-06-12T02:44:31.963Z,32.75
2018-06-12T02:47:02.324Z,32.00
2018-06-12T02:49:35.367Z,31.50
2018-06-12T02:52:06.927Z,31.75
2018-06-12T02:54:37.155Z,29.50
2018-06-12T02:57:08.607Z,31.50
2018-06-12T02:59:41.572Z,31.25
2018-06-12T03:02:14.860Z,33.00
2018-06-12T03:04:45.443Z,31.25
2018-06-12T03:10:19.920Z,35.75
2018-06-12T03:12:50.096Z,33.75
2018-06-12T03:15:20.685Z,32.50
2018-06-12T03:17:51.757Z,35.00
2018-06-12T03:20:31.656Z,37.00
2018-06-12T03:23:01.960Z,36.75
2018-06-12T03:25:32.238Z,35.00
2018-06-12T03:28:02.900Z,35.50
2018-06-12T03:30:33.639Z,34.25
2018-06-12T03:33:04.692Z,37.75
2018-06-12T03:35:40.205Z,34.75
2018-06-12T03:38:10.627Z,37.50
2018-06-12T03:40:54.579Z,38.00
2018-06-12T03:43:24.869Z,39.00
2018-06-12T03:45:55.460Z,38.00
2018-06-12T03:48:25.747Z,35.00
2018-06-12T03:50:56.935Z,39.00
2018-06-12T03:53:27.190Z,41.00
2018-06-12T03:55:57.409Z,39.75
2018-06-12T03:58:27.792Z,38.50
2018-06-12T04:00:59.000Z,38.50
2018-06-12T04:03:29.222Z,39.00
2018-06-12T04:05:59.537Z,39.75
2018-06-12T04:08:29.719Z,40.00
2018-06-12T04:11:00.936Z,37.50
2018-06-12T04:13:32.099Z,39.00
2018-06-12T04:16:02.831Z,37.00
2018-06-12T04:18:33.476Z,38.25
2018-06-12T04:21:04.024Z,37.75
2018-06-12T04:23:34.351Z,40.00
2018-06-12T04:26:05.195Z,41.50
2018-06-12T04:28:35.489Z,38.25
2018-06-12T04:31:05.773Z,40.25
2018-06-12T04:33:37.054Z,40.75
2018-06-12T04:36:07.640Z,42.00
2018-06-12T04:38:37.867Z,41.25
2018-06-12T04:41:08.637Z,43.00
2018-06-12T04:43:41.843Z,41.25
2018-06-12T04:46:12.806Z,41.00
2018-06-12T04:48:44.018Z,43.25
2018-06-12T04:51:16.195Z,41.75
2018-06-12T04:53:48.816Z,41.75
2018-06-12T04:56:21.213Z,39.50
2018-06-12T04:58:51.846Z,42.00
2018-06-12T05:01:22.399Z,44.75
2018-06-12T05:03:53.100Z,43.25
2018-06-12T05:06:23.329Z,42.50
2018-06-12T05:08:58.843Z,45.00
2018-06-12T05:11:29.372Z,46.50
2018-06-12T05:14:04.674Z,44.50
2018-06-12T05:16:36.233Z,47.25
2018-06-12T05:19:07.048Z,47.25
2018-06-12T05:21:39.354Z,43.00
2018-06-12T05:24:09.579Z,46.75
2018-06-12T05:26:42.101Z,44.75
2018-06-12T05:29:12.581Z,45.25
2018-06-12T05:31:43.015Z,42.50
2018-06-12T05:34:13.315Z,45.50
2018-06-12T05:36:45.025Z,42.25
2018-06-12T05:39:15.392Z,40.75
2018-06-12T05:41:48.773Z,44.25
2018-06-12T05:44:19.777Z,45.25
2018-06-12T05:46:52.298Z,44.00
2018-06-12T05:49:29.259Z,41.50
2018-06-12T05:52:01.863Z,43.50
2018-06-12T05:54:32.516Z,43.75
2018-06-12T05:57:07.070Z,42.00
2018-06-12T05:59:38.864Z,40.00
2018-06-12T06:02:09.101Z,40.75
2018-06-12T06:04:41.103Z,41.00
2018-06-12T06:07:11.397Z,42.25
2018-06-12T06:09:45.554Z,43.75
2018-06-12T06:12:21.454Z,42.75
2018-06-12T06:14:52.478Z,43.75
2018-06-12T06:17:24.055Z,41.75
2018-06-12T06:19:55.564Z,42.00
2018-06-12T06:22:25.949Z,43.75
2018-06-12T06:25:07.061Z,42.75
2018-06-12T06:27:37.536Z,41.00
2018-06-12T06:30:16.403Z,42.25
2018-06-12T06:32:49.445Z,40.50
2018-06-12T06:35:44.171Z,40.75
2018-06-12T06:38:16.764Z,39.00
2018-06-12T06:40:48.451Z,39.25
2018-06-12T06:43:21.703Z,40.50
2018-06-12T06:45:53.783Z,41.25
2018-06-12T06:48:24.910Z,39.00
2018-06-12T06:50:57.287Z,38.25
2018-06-12T06:53:30.361Z,41.75
2018-06-12T06:56:05.224Z,40.00
2018-06-12T06:58:37.137Z,38.00
2018-06-12T07:01:08.261Z,38.00
2018-06-12T07:03:39.870Z,40.00
2018-06-12T07:06:11.433Z,39.00
2018-06-12T07:08:43.252Z,37.50
2018-06-12T07:11:15.400Z,37.25
2018-06-12T07:13:46.499Z,35.00
2018-06-12T07:16:17.862Z,37.50
2018-06-12T07:18:48.334Z,38.00
2018-06-12T07:21:25.587Z,33.75
2018-06-12T07:24:04.539Z,35.50
2018-06-12T07:26:35.090Z,35.25
2018-06-12T07:29:09.594Z,34.75
2018-06-12T07:31:46.891Z,32.75
2018-06-12T07:34:17.624Z,34.00
2018-06-12T07:36:48.899Z,33.50
2018-06-12T07:39:20.959Z,36.00
2018-06-12T07:41:52.653Z,35.00
2018-06-12T07:44:25.656Z,35.75
2018-06-12T07:46:59.484Z,32.25
2018-06-12T07:49:30.648Z,34.25
2018-06-12T07:52:03.385Z,35.75
2018-06-12T07:54:41.619Z,34.00
2018-06-12T07:57:12.144Z,35.75
2018-06-12T07:59:43.576Z,35.25
2018-06-12T08:02:15.211Z,33.00
2018-06-12T08:04:45.545Z,33.50
2018-06-12T08:07:16.134Z,35.00
2018-06-12T08:09:48.133Z,35.50
2018-06-12T08:12:28.096Z,34.75
2018-06-12T08:15:00.647Z,35.00
2018-06-12T08:17:38.410Z,34.00
2018-06-12T08:20:14.505Z,33.25
2018-06-12T08:23:01.576Z,34.50
2018-06-12T08:25:34.538Z,32.25
2018-06-12T08:28:11.574Z,30.25
2018-06-12T08:30:44.310Z,31.25
2018-06-12T08:33:15.275Z,29.25
2018-06-12T08:35:46.980Z,33.00
2018-06-12T08:38:18.198Z,34.00
2018-06-12T08:40:51.633Z,32.25
2018-06-12T08:43:23.564Z,31.00
2018-06-12T08:45:56.647Z,33.50
2018-06-12T08:48:27.697Z,32.50
2018-06-12T08:50:59.669Z,33.50
2018-06-12T08:53:31.313Z,32.75
2018-06-12T08:56:03.094Z,32.50
2018-06-12T08:58:34.738Z,34.00
2018-06-12T09:01:10.479Z,28.25
2018-06-12T09:03:43.518Z,32.75
2018-06-12T09:06:14.052Z,33.00
2018-06-12T09:08:45.311Z,33.50
2018-06-12T09:11:18.747Z,33.25
2018-06-12T09:13:49.237Z,33.50
2018-06-12T09:16:20.260Z,31.00
2018-06-12T09:18:51.348Z,34.25
2018-06-12T09:21:27.307Z,32.00
2018-06-12T09:24:02.292Z,33.75
2018-06-12T09:27:00.981Z,32.25
2018-06-12T09:29:42.435Z,32.00
2018-06-12T09:32:26.592Z,33.00
2018-06-12T09:34:58.849Z,32.00
2018-06-12T09:37:35.618Z,33.50
2018-06-12T09:40:06.238Z,35.00
2018-06-12T09:43:00.397Z,32.50
2018-06-12T09:45:32.627Z,33.25
2018-06-12T09:48:15.724Z,35.75
2018-06-12T09:50:52.584Z,34.50
2018-06-12T09:53:28.645Z,34.75
2018-06-12T09:56:01.686Z,34.75
2018-06-12T09:58:33.634Z,33.50
2018-06-12T10:01:09.866Z,34.50
2018-06-12T10:04:14.395Z,35.00
2018-06-12T10:06:45.581Z,35.25
2018-06-12T10:09:21.486Z,32.50
2018-06-12T10:11:55.393Z,31.50
2018-06-12T10:14:27.125Z,34.00
2018-06-12T10:17:30.363Z,31.25
2018-06-12T10:20:02.813Z,30.00
2018-06-12T10:22:49.092Z,34.75
2018-06-12T10:25:22.687Z,31.25
2018-06-12T10:27:54.609Z,34.00
2018-06-12T10:30:25.194Z,30.75
2018-06-12T10:32:56.902Z,34.25
2018-06-12T10:35:34.754Z,32.25
2018-06-12T10:40:54.523Z,32.50
2018-06-12T10:43:26.009Z,33.25
2018-06-12T10:45:57.631Z,33.25
2018-06-12T10:48:32.394Z,30.25
2018-06-12T10:51:07.448Z,31.00
2018-06-12T10:53:40.820Z,34.75
2018-06-12T10:56:16.042Z,33.25
2018-06-12T10:58:50.449Z,33.00
2018-06-12T11:01:26.744Z,34.25
2018-06-12T11:04:00.870Z,32.75
2018-06-12T11:06:38.139Z,31.25
2018-06-12T11:09:11.641Z,33.75
2018-06-12T11:11:44.242Z,30.75
2018-06-12T11:14:29.519Z,34.00
2018-06-12T11:17:16.234Z,31.00
2018-06-12T11:19:48.568Z,28.00
2018-06-12T11:22:22.410Z,33.00
2018-06-12T11:25:07.635Z,31.00
2018-06-12T11:27:42.595Z,31.75
2018-06-12T11:30:18.847Z,29.25
2018-06-12T11:32:50.478Z,31.00
2018-06-12T11:35:26.213Z,29.75
2018-06-12T11:37:58.564Z,28.50
2018-06-12T11:40:42.692Z,27.25
2018-06-12T11:43:27.671Z,24.50
2018-06-12T11:45:58.393Z,30.00
2018-06-12T11:48:28.957Z,25.50
2018-06-12T11:51:00.896Z,29.50
2018-06-12T11:53:32.225Z,30.75
2018-06-12T11:56:03.374Z,29.75
2018-06-12T11:58:34.995Z,29.50
2018-06-12T12:01:06.636Z,29.00
2018-06-12T12:03:37.958Z,27.00
2018-06-12T12:06:11.882Z,25.50
2018-06-12T12:08:45.359Z,25.00
2018-06-12T12:11:18.582Z,26.00
2018-06-12T12:13:53.360Z,27.50
2018-06-12T12:16:24.441Z,23.25
2018-06-12T12:18:54.728Z,25.75
2018-06-12T12:21:32.548Z,23.75
2018-06-12T12:24:18.446Z,26.00
2018-06-12T12:26:50.688Z,24.25
2018-06-12T12:29:27.560Z,26.50
2018-06-12T12:32:03.237Z,25.50
2018-06-12T12:34:34.489Z,26.25
2018-06-12T12:37:07.431Z,23.50
2018-06-12T12:39:40.478Z,24.25
2018-06-12T12:42:13.885Z,28.50
2018-06-12T12:44:51.026Z,29.50
2018-06-12T12:47:24.033Z,22.50
2018-06-12T12:49:59.562Z,23.75
2018-06-12T12:52:32.001Z,22.75
2018-06-12T12:55:05.672Z,23.00
2018-06-12T12:57:54.343Z,24.00
2018-06-12T13:00:25.430Z,22.00
2018-06-12T13:02:58.423Z,22.75
2018-06-12T13:05:29.570Z,20.00
2018-06-12T13:08:01.511Z,23.00
2018-06-12T13:10:35.341Z,23.75
2018-06-12T13:13:10.287Z,27.75
2018-06-12T13:15:46.070Z,30.00
2018-06-12T13:18:20.382Z,31.50
2018-06-12T13:20:55.030Z,32.00
2018-06-12T13:23:31.946Z,32.50
2018-06-12T13:26:18.491Z,33.00
2018-06-12T13:31:54.499Z,32.00
2018-06-12T13:34:46.532Z,27.00
2018-06-12T13:37:18.418Z,32.50
2018-06-12T13:39:51.461Z,29.25
2018-06-12T13:42:27.179Z,29.00
2018-06-12T13:45:18.830Z,26.50
2018-06-12T13:48:01.380Z,26.75
2018-06-12T13:50:34.979Z,27.00
2018-06-12T13:53:08.472Z,25.50
2018-06-12T13:55:55.338Z,22.25
2018-06-12T13:58:27.134Z,24.00
2018-06-12T14:01:00.416Z,23.50
2018-06-12T14:03:32.241Z,26.00
2018-06-12T14:06:05.326Z,22.75
2018-06-12T14:08:37.364Z,21.50
2018-06-12T14:11:09.303Z,21.75
2018-06-12T14:13:43.147Z,21.25
2018-06-12T14:16:30.105Z,19.50
2018-06-12T14:19:00.433Z,21.00
2018-06-12T14:21:33.364Z,22.00
2018-06-12T14:24:10.889Z,20.50
2018-06-12T14:26:44.767Z,20.25
2018-06-12T14:29:18.681Z,19.50
2018-06-12T14:31:51.883Z,19.50
2018-06-12T14:34:24.295Z,22.25
2018-06-12T14:36:57.424Z,21.75
2018-06-12T14:39:29.596Z,22.00
2018-06-12T14:42:05.439Z,21.75
2018-06-12T14:44:37.818Z,20.50
2018-06-12T14:47:22.743Z,24.25
2018-06-12T14:49:56.554Z,24.25
2018-06-12T14:52:44.149Z,25.00
2018-06-12T14:55:24.627Z,27.00
2018-06-12T14:57:56.717Z,24.00
2018-06-12T15:00:28.213Z,25.50
2018-06-12T15:03:07.433Z,25.75
2018-06-12T15:05:42.514Z,24.75
2018-06-12T15:08:18.976Z,24.50
2018-06-12T15:10:55.892Z,25.75
2018-06-12T15:13:37.240Z,26.50
2018-06-12T15:16:15.669Z,26.00
2018-06-12T15:18:48.418Z,29.25
2018-06-12T15:21:20.511Z,26.75
2018-06-12T15:26:24.229Z,26.75
2018-06-12T15:29:01.939Z,26.00
2018-06-12T15:31:42.947Z,24.00
2018-06-12T15:34:29.059Z,26.25
2018-06-12T15:37:22.320Z,27.75
2018-06-12T15:42:35.720Z,27.25
2018-06-12T15:45:16.790Z,24.00
2018-06-12T15:47:48.776Z,24.50
2018-06-12T15:50:28.831Z,27.75
2018-06-12T15:53:05.253Z,28.75
2018-06-12T15:55:35.979Z,26.25
2018-06-12T15:58:08.041Z,25.50
2018-06-12T16:00:44.821Z,26.50
2018-06-12T16:03:25.387Z,26.25
2018-06-12T16:06:04.631Z,30.25
2018-06-12T16:08:41.583Z,25.00
2018-06-12T16:14:13.275Z,29.25
2018-06-12T16:16:46.693Z,29.00
2018-06-12T16:19:18.502Z,26.00
2018-06-12T16:21:48.967Z,28.50
2018-06-12T16:24:37.851Z,30.50
2018-06-12T16:27:15.495Z,29.50
2018-06-12T16:29:48.518Z,28.00
2018-06-12T16:32:19.937Z,28.25
2018-06-12T16:34:52.541Z,24.25
2018-06-12T16:37:24.636Z,26.25
2018-06-12T16:39:58.891Z,24.50
2018-06-12T16:42:30.889Z,24.75
2018-06-12T16:45:06.229Z,26.00
2018-06-12T16:47:39.506Z,27.00
2018-06-12T16:50:16.324Z,27.50
2018-06-12T16:52:54.092Z,28.75
2018-06-12T16:55:28.153Z,25.75
2018-06-12T16:58:01.550Z,23.75
2018-06-12T17:00:32.349Z,25.00
2018-06-12T17:03:04.835Z,24.50
2018-06-12T17:05:57.036Z,25.50
2018-06-12T17:08:36.216Z,24.25
2018-06-12T17:11:16.430Z,28.25
2018-06-12T17:13:50.837Z,26.50
2018-06-12T17:16:30.918Z,29.25
2018-06-12T17:19:11.430Z,22.50
2018-06-12T17:21:48.071Z,24.50
2018-06-12T17:24:23.725Z,29.25
2018-06-12T17:26:57.545Z,26.25
2018-06-12T17:29:30.130Z,26.50
2018-06-12T17:34:49.853Z,26.75
2018-06-12T17:37:22.176Z,26.75
2018-06-12T17:39:52.777Z,28.75
2018-06-12T17:42:28.262Z,30.25
2018-06-12T17:46:44.290Z,24.75
2018-06-12T17:49:47.332Z,30.25
2018-06-12T17:52:21.771Z,32.75
2018-06-12T17:54:58.588Z,25.25
2018-06-12T17:57:33.824Z,26.25
2018-06-12T18:00:32.985Z,26.25
2018-06-12T18:03:04.856Z,26.25
2018-06-12T18:05:39.796Z,29.00
2018-06-12T18:08:34.220Z,27.75
2018-06-12T18:11:14.904Z,27.00
2018-06-12T18:13:53.477Z,28.00
2018-06-12T18:16:32.262Z,29.00
2018-06-12T18:19:22.493Z,27.00
2018-06-12T18:21:55.354Z,27.00
2018-06-12T18:24:30.035Z,29.25
2018-06-12T18:27:06.750Z,24.00
2018-06-12T18:29:40.528Z,27.25
2018-06-12T18:43:23.587Z,23.50
2018-06-12T18:46:09.924Z,25.50
2018-06-12T18:48:47.630Z,26.25
2018-06-12T18:51:30.557Z,23.25
2018-06-12T18:54:14.224Z,22.50
2018-06-12T18:56:53.295Z,20.75
2018-06-12T18:59:33.420Z,23.25
2018-06-12T19:04:57.983Z,20.75
2018-06-12T19:07:35.943Z,22.25
2018-06-12T19:10:16.699Z,19.50
2018-06-12T19:13:07.947Z,20.00
2018-06-12T19:15:57.391Z,18.25
2018-06-12T19:18:34.944Z,22.50
2018-06-12T19:21:13.396Z,21.25
2018-06-12T19:23:59.693Z,20.50
2018-06-12T19:26:52.654Z,19.50
2018-06-12T19:29:33.931Z,23.75
2018-06-12T19:32:09.145Z,19.00
2018-06-12T19:34:53.656Z,20.75
2018-06-12T19:37:28.604Z,19.00
2018-06-12T19:40:03.433Z,19.50
2018-06-12T19:42:41.461Z,19.75
2018-06-12T19:45:19.372Z,18.75
2018-06-12T19:47:51.837Z,21.00
2018-06-12T19:50:30.449Z,19.25
2018-06-12T19:53:02.988Z,19.50
2018-06-12T19:55:38.174Z,21.50
2018-06-12T19:58:12.656Z,20.00
2018-06-12T20:00:44.646Z,17.00
2018-06-12T20:03:22.676Z,19.00
2018-06-12T20:06:00.598Z,20.75
2018-06-12T20:11:17.940Z,26.50
2018-06-12T20:14:00.679Z,19.25
2018-06-12T20:16:35.701Z,22.75
2018-06-12T20:19:08.850Z,21.75
2018-06-12T20:21:49.203Z,20.25
2018-06-12T20:24:33.854Z,23.50
2018-06-12T20:27:08.654Z,22.25
2018-06-12T20:29:48.526Z,22.50
2018-06-12T20:32:27.705Z,19.75
2018-06-12T20:35:00.740Z,22.25
2018-06-12T20:37:33.855Z,21.75
2018-06-12T20:40:15.899Z,18.75
2018-06-12T20:42:50.309Z,19.50
2018-06-12T20:45:38.712Z,17.50
2018-06-12T20:48:19.736Z,18.50
2018-06-12T20:50:56.210Z,19.25
2018-06-12T20:53:31.221Z,20.00
2018-06-12T20:56:06.782Z,14.75
2018-06-12T20:58:39.859Z,17.25
2018-06-12T21:01:19.893Z,16.75
2018-06-12T21:04:02.076Z,16.50
2018-06-12T21:06:43.941Z,16.00
2018-06-12T21:09:27.636Z,16.00
2018-06-12T21:12:04.136Z,16.25
2018-06-12T21:14:40.092Z,13.00
2018-06-12T21:17:24.385Z,16.75
2018-06-12T21:20:02.393Z,14.75
2018-06-12T21:22:36.553Z,14.50
2018-06-12T21:25:19.022Z,16.00
2018-06-12T21:27:51.994Z,10.75
2018-06-12T21:30:23.837Z,15.50
2018-06-12T21:32:59.357Z,16.00
2018-06-12T21:35:43.359Z,12.25
2018-06-12T21:38:18.326Z,12.75
2018-06-12T21:40:53.512Z,10.75
2018-06-12T21:43:25.424Z,15.25
2018-06-12T21:46:01.299Z,11.75
2018-06-12T21:48:38.751Z,13.25
2018-06-12T21:51:12.795Z,13.00
2018-06-12T21:53:43.474Z,10.00
2018-06-12T21:56:21.478Z,15.75
2018-06-12T21:58:56.137Z,13.00
2018-06-12T22:01:28.250Z,12.25
2018-06-12T22:07:11.650Z,14.50
2018-06-12T22:09:51.006Z,14.00
2018-06-12T22:12:23.293Z,14.25
2018-06-12T22:14:59.645Z,11.50
2018-06-12T22:17:35.371Z,11.50
2018-06-12T22:20:09.891Z,13.00
2018-06-12T22:22:41.960Z,14.00
2018-06-12T22:25:22.817Z,12.50
2018-06-12T22:27:58.468Z,12.00
2018-06-12T22:30:32.459Z,9.75
2018-06-12T22:33:17.128Z,12.25
2018-06-12T22:35:50.469Z,10.25
2018-06-12T22:38:23.288Z,10.00
2018-06-12T22:40:58.348Z,10.00
2018-06-12T22:43:34.289Z,10.00
2018-06-12T22:46:10.509Z,10.75
2018-06-12T22:48:41.718Z,10.50
2018-06-12T22:51:21.105Z,9.00
2018-06-12T22:53:55.299Z,10.00
2018-06-12T22:56:27.839Z,9.00
2018-06-12T22:59:02.535Z,10.25
2018-06-12T23:01:40.517Z,11.25
2018-06-12T23:04:17.249Z,10.00
2018-06-12T23:06:59.901Z,11.50
2018-06-12T23:09:36.170Z,9.00
2018-06-12T23:12:12.062Z,9.25
2018-06-12T23:14:47.921Z,9.00
2018-06-12T23:17:19.269Z,9.00
2018-06-12T23:20:02.625Z,8.25
2018-06-12T23:22:36.963Z,10.75
2018-06-12T23:27:45.515Z,12.50
2018-06-12T23:30:19.450Z,12.50
2018-06-12T23:32:51.090Z,12.25
2018-06-12T23:35:23.585Z,13.00
2018-06-12T23:37:54.256Z,12.75
2018-06-12T23:40:26.082Z,13.00
2018-06-12T23:42:58.238Z,12.00
2018-06-12T23:45:31.013Z,9.00
2018-06-12T23:48:04.196Z,10.75
2018-06-12T23:50:39.421Z,11.00
2018-06-12T23:53:10.421Z,13.25
2018-06-12T23:55:42.338Z,11.75
2018-06-12T23:58:17.614Z,12.00
